createdAt,value
2022-09-11T00:00:24.199Z,11
2022-09-11T00:01:24.210Z,10.83
2022-09-11T00:02:24.259Z,11
2022-09-11T00:03:24.204Z,11
2022-09-11T00:04:24.206Z,11
2022-09-11T00:05:24.207Z,10.67
2022-09-11T00:06:29.633Z,10.83
2022-09-11T00:07:24.214Z,10.83
2022-09-11T00:08:24.211Z,10.56
2022-09-11T00:09:24.218Z,11
2022-09-11T00:10:24.209Z,10.83
2022-09-11T00:11:24.211Z,11
2022-09-11T00:12:24.208Z,11
2022-09-11T00:13:24.213Z,11
2022-09-11T00:14:24.207Z,11
2022-09-11T00:15:24.214Z,11
2022-09-11T00:16:24.231Z,10.67
2022-09-11T00:17:24.220Z,10.67
2022-09-11T00:18:24.219Z,10.67
2022-09-11T00:19:24.216Z,10.83
2022-09-11T00:20:24.211Z,10.67
2022-09-11T00:21:24.215Z,11
2022-09-11T00:22:24.231Z,10.83
2022-09-11T00:23:24.215Z,10.83
2022-09-11T00:24:24.209Z,11
2022-09-11T00:25:24.220Z,11
2022-09-11T00:26:24.209Z,10.83
2022-09-11T00:27:24.218Z,11
2022-09-11T00:28:24.216Z,10.83
2022-09-11T00:29:24.219Z,10.67
2022-09-11T00:30:24.216Z,10.83
2022-09-11T00:31:24.259Z,10.83
2022-09-11T00:32:24.220Z,10.83
2022-09-11T00:33:24.223Z,11
2022-09-11T00:34:24.222Z,11
2022-09-11T00:35:24.223Z,10.83
2022-09-11T00:36:24.219Z,10.67
2022-09-11T00:37:24.222Z,10.83
2022-09-11T00:38:24.242Z,10.83
2022-09-11T00:39:24.221Z,11
2022-09-11T00:40:24.225Z,11
2022-09-11T00:41:24.233Z,10.83
2022-09-11T00:42:24.222Z,11
2022-09-11T00:43:24.226Z,11
2022-09-11T00:44:24.221Z,10.56
2022-09-11T00:45:24.219Z,10.56
2022-09-11T00:46:24.221Z,10.56
2022-09-11T00:47:24.224Z,10.67
2022-09-11T00:48:24.220Z,10.67
2022-09-11T00:49:24.228Z,10.39
2022-09-11T00:50:24.223Z,10.56
2022-09-11T00:51:24.223Z,10.67
2022-09-11T00:52:24.232Z,10.56
2022-09-11T00:53:24.223Z,10.56
2022-09-11T00:54:24.254Z,11
2022-09-11T00:55:24.231Z,10.39
2022-09-11T00:56:24.227Z,10.56
2022-09-11T00:57:24.243Z,10.67
2022-09-11T00:58:24.229Z,10.56
2022-09-11T00:59:24.237Z,10.67
2022-09-11T01:00:24.229Z,10.83
2022-09-11T01:01:24.240Z,10.67
2022-09-11T01:02:27.243Z,10.67
2022-09-11T01:03:24.243Z,10.83
2022-09-11T01:04:24.242Z,10.83
2022-09-11T01:05:24.237Z,10.67
2022-09-11T01:06:24.250Z,10.67
2022-09-11T01:07:24.244Z,10.56
2022-09-11T01:08:24.248Z,10.67
2022-09-11T01:09:24.246Z,10.39
2022-09-11T01:10:24.281Z,10.56
2022-09-11T01:11:24.250Z,10.56
2022-09-11T01:12:24.250Z,10.83
2022-09-11T01:13:24.264Z,10.83
2022-09-11T01:14:24.258Z,10.67
2022-09-11T01:15:24.259Z,10.39
2022-09-11T01:16:24.302Z,10.67
2022-09-11T01:17:24.261Z,10.83
2022-09-11T01:18:24.256Z,11
2022-09-11T01:19:24.269Z,11
2022-09-11T01:20:24.283Z,10.83
2022-09-11T01:21:24.262Z,10.83
2022-09-11T01:22:24.277Z,11
2022-09-11T01:23:24.269Z,11
2022-09-11T01:24:24.260Z,10.67
2022-09-11T01:25:24.269Z,10.67
2022-09-11T01:26:24.285Z,10.56
2022-09-11T01:27:24.269Z,10.56
2022-09-11T01:28:24.272Z,10.56
2022-09-11T01:29:24.279Z,10.67
2022-09-11T01:30:24.278Z,10.56
2022-09-11T01:31:24.304Z,10.39
2022-09-11T01:32:24.276Z,10.83
2022-09-11T01:33:24.288Z,10.56
2022-09-11T01:34:24.278Z,10.56
2022-09-11T01:35:24.288Z,10.67
2022-09-11T01:36:24.281Z,10.56
2022-09-11T01:37:24.283Z,10.67
2022-09-11T01:38:24.277Z,10.67
2022-09-11T01:39:24.285Z,10.56
2022-09-11T01:40:24.287Z,10.67
2022-09-11T01:41:24.291Z,10.56
2022-09-11T01:42:24.311Z,10.39
2022-09-11T01:43:24.283Z,10.56
2022-09-11T01:44:24.280Z,10.39
2022-09-11T01:45:24.324Z,10.67
2022-09-11T01:46:24.292Z,10.67
2022-09-11T01:47:24.293Z,10.67
2022-09-11T01:48:24.290Z,10.56
2022-09-11T01:49:24.308Z,10.67
2022-09-11T01:50:24.295Z,10.56
2022-09-11T01:51:24.312Z,10.67
2022-09-11T01:52:24.286Z,10.67
2022-09-11T01:53:24.298Z,10.67
2022-09-11T01:54:24.295Z,10.56
2022-09-11T01:55:24.302Z,10.67
2022-09-11T01:56:24.304Z,10.83
2022-09-11T01:57:24.313Z,10.39
2022-09-11T01:58:24.331Z,10.39
2022-09-11T01:59:24.313Z,10.67
2022-09-11T02:00:24.299Z,10.56
2022-09-11T02:01:24.314Z,10.56
2022-09-11T02:02:24.352Z,10.56
2022-09-11T02:03:24.316Z,10.56
2022-09-11T02:04:24.311Z,10.56
2022-09-11T02:05:24.323Z,10.56
2022-09-11T02:06:24.313Z,10.56
2022-09-11T02:07:24.328Z,10.39
2022-09-11T02:08:24.322Z,10.56
2022-09-11T02:09:24.323Z,10.39
2022-09-11T02:10:24.322Z,10.67
2022-09-11T02:11:24.321Z,10.83
2022-09-11T02:12:24.322Z,10.56
2022-09-11T02:13:27.658Z,10.39
2022-09-11T02:14:24.341Z,10.56
2022-09-11T02:15:24.330Z,10.56
2022-09-11T02:16:24.505Z,10.67
2022-09-11T02:17:24.325Z,10.67
2022-09-11T02:18:24.327Z,10.56
2022-09-11T02:19:24.327Z,10.67
2022-09-11T02:20:24.338Z,10.56
2022-09-11T02:21:24.333Z,10.67
2022-09-11T02:22:24.328Z,10.56
2022-09-11T02:23:24.332Z,10.67
2022-09-11T02:24:24.336Z,10.56
2022-09-11T02:25:24.333Z,10.67
2022-09-11T02:26:24.338Z,10.56
2022-09-11T02:27:24.328Z,10.56
2022-09-11T02:28:24.335Z,10.67
2022-09-11T02:29:24.341Z,10.83
2022-09-11T02:30:24.372Z,10.39
2022-09-11T02:31:24.359Z,10.56
2022-09-11T02:32:24.336Z,10.83
2022-09-11T02:33:24.342Z,10.83
2022-09-11T02:34:24.343Z,10.67
2022-09-11T02:35:24.344Z,10.67
2022-09-11T02:36:24.346Z,10.67
2022-09-11T02:37:24.345Z,11
2022-09-11T02:38:24.348Z,11
2022-09-11T02:39:24.351Z,11
2022-09-11T02:40:24.348Z,10.83
2022-09-11T02:41:24.347Z,11
2022-09-11T02:42:24.353Z,11
2022-09-11T02:43:24.354Z,10.83
2022-09-11T02:44:24.352Z,10.83
2022-09-11T02:45:24.382Z,10.83
2022-09-11T02:46:24.381Z,10.56
2022-09-11T02:47:24.362Z,10.83
2022-09-11T02:48:24.356Z,10.83
2022-09-11T02:49:24.398Z,10.83
2022-09-11T02:50:24.353Z,11
2022-09-11T02:51:24.368Z,10.83
2022-09-11T02:52:24.369Z,10.83
2022-09-11T02:53:24.367Z,10.39
2022-09-11T02:54:24.359Z,11
2022-09-11T02:55:24.362Z,10.83
2022-09-11T02:56:24.375Z,11
2022-09-11T02:57:24.369Z,10.83
2022-09-11T02:58:24.372Z,10.56
2022-09-11T02:59:24.368Z,10.83
2022-09-11T03:00:24.368Z,10.83
2022-09-11T03:01:24.367Z,10.67
2022-09-11T03:02:24.417Z,10.83
2022-09-11T03:03:24.376Z,10.83
2022-09-11T03:04:24.379Z,10.67
2022-09-11T03:05:24.376Z,10.83
2022-09-11T03:06:24.372Z,10.83
2022-09-11T03:07:24.380Z,11
2022-09-11T03:08:24.379Z,10.67
2022-09-11T03:09:24.381Z,10.56
2022-09-11T03:10:24.380Z,10.67
2022-09-11T03:11:24.372Z,10.56
2022-09-11T03:12:24.380Z,10.56
2022-09-11T03:13:24.381Z,10.56
2022-09-11T03:14:24.387Z,10.83
2022-09-11T03:15:24.385Z,10.56
2022-09-11T03:16:24.441Z,10.56
2022-09-11T03:17:24.384Z,10.83
2022-09-11T03:18:24.411Z,10.39
2022-09-11T03:19:24.384Z,10.56
2022-09-11T03:20:24.391Z,10.56
2022-09-11T03:21:24.398Z,10.56
2022-09-11T03:22:24.395Z,10.56
2022-09-11T03:23:24.392Z,10.56
2022-09-11T03:24:24.389Z,10.39
2022-09-11T03:25:24.395Z,10.56
2022-09-11T03:26:24.398Z,10.39
2022-09-11T03:27:24.400Z,10.67
2022-09-11T03:28:24.415Z,10.39
2022-09-11T03:29:24.408Z,10.56
2022-09-11T03:30:24.412Z,10.67
2022-09-11T03:31:24.446Z,10.39
2022-09-11T03:32:24.402Z,10.56
2022-09-11T03:33:24.409Z,10.56
2022-09-11T03:34:24.429Z,10.67
2022-09-11T03:35:24.415Z,10.83
2022-09-11T03:36:24.411Z,10.56
2022-09-11T03:37:24.413Z,10.83
2022-09-11T03:38:24.419Z,10.56
2022-09-11T03:39:24.411Z,10.39
2022-09-11T03:40:24.417Z,10.56
2022-09-11T03:41:24.425Z,10.67
2022-09-11T03:42:24.421Z,10.56
2022-09-11T03:43:24.418Z,10.67
2022-09-11T03:44:24.418Z,10.56
2022-09-11T03:45:24.452Z,10.83
2022-09-11T03:46:24.420Z,10.56
2022-09-11T03:47:24.429Z,10.67
2022-09-11T03:48:24.430Z,10.83
2022-09-11T03:49:24.425Z,10.56
2022-09-11T03:50:24.458Z,10.56
2022-09-11T03:51:24.433Z,10.56
2022-09-11T03:52:24.431Z,10.67
2022-09-11T03:53:24.429Z,10.56
2022-09-11T03:54:24.432Z,10.56
2022-09-11T03:55:24.431Z,10.56
2022-09-11T03:56:24.440Z,10.67
2022-09-11T03:57:24.432Z,11
2022-09-11T03:58:24.433Z,10.83
2022-09-11T03:59:24.439Z,11
2022-09-11T04:00:24.439Z,10.67
2022-09-11T04:01:24.543Z,10.56
2022-09-11T04:02:24.435Z,10.83
2022-09-11T04:03:24.441Z,10.83
2022-09-11T04:04:24.450Z,10.56
2022-09-11T04:05:24.442Z,11
2022-09-11T04:06:24.473Z,10.67
2022-09-11T04:07:24.437Z,10.83
2022-09-11T04:08:24.441Z,10.39
2022-09-11T04:09:24.452Z,10.67
2022-09-11T04:10:24.455Z,10.67
2022-09-11T04:11:24.448Z,10.83
2022-09-11T04:12:24.454Z,10.67
2022-09-11T04:13:24.450Z,10.67
2022-09-11T04:14:24.451Z,10.67
2022-09-11T04:15:24.457Z,10.67
2022-09-11T04:16:24.501Z,10.67
2022-09-11T04:17:24.445Z,10.56
2022-09-11T04:18:24.453Z,10.67
2022-09-11T04:19:24.450Z,10.56
2022-09-11T04:20:24.459Z,10.56
2022-09-11T04:21:24.462Z,10.39
2022-09-11T04:22:24.474Z,10.56
2022-09-11T04:23:24.461Z,10.56
2022-09-11T04:24:24.462Z,10.67
2022-09-11T04:25:24.458Z,10.56
2022-09-11T04:26:24.464Z,10.67
2022-09-11T04:27:24.464Z,10.39
2022-09-11T04:28:24.463Z,10.56
2022-09-11T04:29:24.469Z,10.22
2022-09-11T04:30:24.463Z,10.56
2022-09-11T04:31:24.501Z,10.67
2022-09-11T04:32:24.461Z,10.56
2022-09-11T04:33:24.466Z,10.56
2022-09-11T04:34:24.464Z,10.39
2022-09-11T04:35:24.468Z,10.22
2022-09-11T04:36:24.467Z,10.39
2022-09-11T04:37:24.479Z,10.56
2022-09-11T04:38:24.490Z,10.56
2022-09-11T04:39:24.477Z,10.67
2022-09-11T04:40:24.467Z,10.67
2022-09-11T04:41:24.476Z,10.56
2022-09-11T04:42:24.482Z,10.39
2022-09-11T04:43:24.462Z,10.67
2022-09-11T04:44:24.469Z,10.39
2022-09-11T04:45:24.517Z,10.39
2022-09-11T04:46:24.471Z,10.56
2022-09-11T04:47:24.478Z,10.56
2022-09-11T04:48:24.476Z,10.56
2022-09-11T04:49:24.469Z,10.56
2022-09-11T04:50:24.477Z,10.56
2022-09-11T04:51:24.472Z,10.56
2022-09-11T04:52:24.478Z,10.56
2022-09-11T04:53:24.478Z,10.56
2022-09-11T04:54:24.514Z,10.56
2022-09-11T04:55:24.484Z,10.56
2022-09-11T04:56:24.477Z,10.56
2022-09-11T04:57:24.476Z,10.56
2022-09-11T04:58:24.481Z,10.56
2022-09-11T04:59:24.479Z,10.56
2022-09-11T05:00:24.482Z,10.56
2022-09-11T05:01:24.481Z,10.56
2022-09-11T05:02:24.506Z,10.56
2022-09-11T05:03:24.476Z,10.56
2022-09-11T05:04:26.319Z,10.39
2022-09-11T05:05:24.484Z,10.56
2022-09-11T05:06:24.482Z,10.39
2022-09-11T05:07:24.480Z,10.56
2022-09-11T05:08:24.489Z,10.39
2022-09-11T05:09:24.483Z,10.56
2022-09-11T05:10:24.510Z,10.56
2022-09-11T05:11:24.478Z,10.56
2022-09-11T05:12:24.491Z,10.56
2022-09-11T05:13:24.492Z,10.56
2022-09-11T05:14:24.479Z,10.67
2022-09-11T05:15:24.489Z,10.67
2022-09-11T05:16:24.570Z,10.83
2022-09-11T05:17:24.493Z,10.56
2022-09-11T05:18:24.487Z,10.67
2022-09-11T05:19:24.488Z,10.56
2022-09-11T05:20:24.488Z,10.83
2022-09-11T05:21:24.488Z,10.56
2022-09-11T05:22:24.489Z,10.56
2022-09-11T05:23:24.498Z,10.67
2022-09-11T05:24:24.487Z,10.67
2022-09-11T05:25:24.495Z,10.56
2022-09-11T05:26:24.516Z,10.83
2022-09-11T05:27:24.488Z,10.39
2022-09-11T05:28:24.489Z,10.67
2022-09-11T05:29:24.493Z,10.39
2022-09-11T05:30:24.492Z,10.56
2022-09-11T05:31:24.520Z,10.83
2022-09-11T05:32:24.495Z,10.83
2022-09-11T05:33:24.496Z,10.67
2022-09-11T05:34:24.492Z,10.83
2022-09-11T05:35:25.769Z,10.39
2022-09-11T05:36:24.490Z,10.39
2022-09-11T05:37:24.503Z,10.67
2022-09-11T05:38:24.502Z,10.83
2022-09-11T05:39:24.503Z,10.56
2022-09-11T05:40:24.493Z,10.56
2022-09-11T05:41:24.498Z,10.67
2022-09-11T05:42:24.526Z,10.83
2022-09-11T05:43:24.502Z,10.22
2022-09-11T05:44:24.510Z,10.39
2022-09-11T05:45:24.575Z,10.67
2022-09-11T05:46:24.511Z,10.67
2022-09-11T05:47:24.508Z,10.56
2022-09-11T05:48:24.520Z,10.56
2022-09-11T05:49:24.508Z,10.67
2022-09-11T05:50:24.508Z,10.39
2022-09-11T05:51:24.505Z,10.56
2022-09-11T05:52:24.513Z,10.39
2022-09-11T05:53:24.517Z,10.56
2022-09-11T05:54:24.511Z,10.56
2022-09-11T05:55:24.507Z,10.67
2022-09-11T05:56:24.522Z,10.39
2022-09-11T05:57:24.523Z,10.56
2022-09-11T05:58:24.534Z,10.67
2022-09-11T05:59:24.523Z,10.67
2022-09-11T06:00:24.519Z,10.67
2022-09-11T06:01:24.570Z,10.56
2022-09-11T06:02:24.551Z,10.56
2022-09-11T06:03:24.524Z,10.39
2022-09-11T06:04:24.514Z,10.67
2022-09-11T06:05:24.520Z,10.56
2022-09-11T06:06:24.532Z,10.56
2022-09-11T06:07:24.516Z,10.56
2022-09-11T06:08:24.524Z,10.39
2022-09-11T06:09:24.518Z,10.56
2022-09-11T06:10:24.528Z,10.67
2022-09-11T06:11:24.527Z,10.56
2022-09-11T06:12:24.525Z,10.56
2022-09-11T06:13:24.532Z,10.56
2022-09-11T06:14:24.559Z,10.56
2022-09-11T06:15:43.214Z,10.56
2022-09-11T06:16:24.586Z,10.67
2022-09-11T06:17:24.527Z,10.67
2022-09-11T06:18:24.528Z,10.67
2022-09-11T06:19:24.531Z,10.56
2022-09-11T06:20:24.536Z,10.56
2022-09-11T06:21:24.530Z,10.56
2022-09-11T06:22:24.533Z,10.56
2022-09-11T06:23:24.533Z,10.67
2022-09-11T06:24:24.538Z,10.83
2022-09-11T06:25:24.533Z,11
2022-09-11T06:26:24.533Z,10.67
2022-09-11T06:27:24.537Z,10.56
2022-09-11T06:28:24.539Z,10.83
2022-09-11T06:29:24.527Z,10.56
2022-09-11T06:30:24.630Z,10.83
2022-09-11T06:31:24.532Z,10.83
2022-09-11T06:32:24.544Z,11
2022-09-11T06:33:24.533Z,10.67
2022-09-11T06:34:24.544Z,10.83
2022-09-11T06:35:24.545Z,11
2022-09-11T06:36:24.543Z,11
2022-09-11T06:37:24.534Z,11
2022-09-11T06:38:24.536Z,11
2022-09-11T06:39:24.537Z,11
2022-09-11T06:40:24.594Z,10.83
2022-09-11T06:41:24.535Z,10.83
2022-09-11T06:42:24.538Z,11
2022-09-11T06:43:24.550Z,10.67
2022-09-11T06:44:24.540Z,10.83
2022-09-11T06:45:24.537Z,10.83
2022-09-11T06:46:24.561Z,11
2022-09-11T06:47:24.553Z,11
2022-09-11T06:48:24.552Z,11
2022-09-11T06:49:24.545Z,10.67
2022-09-11T06:50:24.614Z,11
2022-09-11T06:51:24.546Z,11
2022-09-11T06:52:24.551Z,11
2022-09-11T06:53:24.549Z,10.83
2022-09-11T06:54:24.553Z,11
2022-09-11T06:55:24.542Z,10.83
2022-09-11T06:56:24.543Z,11
2022-09-11T06:57:24.559Z,11
2022-09-11T06:58:24.548Z,10.83
2022-09-11T06:59:24.555Z,10.67
2022-09-11T07:00:24.603Z,11
2022-09-11T07:01:24.629Z,11
2022-09-11T07:02:24.619Z,10.67
2022-09-11T07:03:24.558Z,11
2022-09-11T07:04:24.555Z,11
2022-09-11T07:05:24.553Z,11.28
2022-09-11T07:06:24.547Z,11.11
2022-09-11T07:07:24.553Z,11.44
2022-09-11T07:08:25.149Z,11
2022-09-11T07:09:24.558Z,11.28
2022-09-11T07:10:24.567Z,11.11
2022-09-11T07:11:24.562Z,11.28
2022-09-11T07:12:24.563Z,11.44
2022-09-11T07:13:24.555Z,11.44
2022-09-11T07:14:24.561Z,11.11
2022-09-11T07:15:24.559Z,11.28
2022-09-11T07:16:24.600Z,11.28
2022-09-11T07:17:24.560Z,11.44
2022-09-11T07:18:24.593Z,11.28
2022-09-11T07:19:24.566Z,11
2022-09-11T07:20:24.563Z,11.44
2022-09-11T07:21:24.564Z,11.28
2022-09-11T07:22:24.561Z,11.61
2022-09-11T07:23:24.570Z,11.61
2022-09-11T07:24:24.566Z,11.61
2022-09-11T07:25:24.564Z,11.44
2022-09-11T07:26:24.563Z,11.44
2022-09-11T07:27:24.562Z,11.83
2022-09-11T07:28:24.568Z,11.83
2022-09-11T07:29:24.572Z,11.83
2022-09-11T07:30:24.621Z,11.83
2022-09-11T07:31:24.564Z,11.72
2022-09-11T07:32:24.573Z,11.83
2022-09-11T07:33:24.567Z,12.28
2022-09-11T07:34:24.598Z,12.11
2022-09-11T07:35:24.571Z,11.83
2022-09-11T07:36:24.575Z,11.94
2022-09-11T07:37:24.575Z,11.94
2022-09-11T07:38:24.575Z,11.83
2022-09-11T07:39:24.569Z,11.83
2022-09-11T07:40:24.583Z,11.44
2022-09-11T07:41:24.578Z,11.61
2022-09-11T07:42:24.585Z,11.83
2022-09-11T07:43:24.576Z,11.83
2022-09-11T07:44:24.574Z,11.61
2022-09-11T07:45:24.565Z,11.44
2022-09-11T07:46:24.574Z,11.28
2022-09-11T07:47:24.580Z,11.28
2022-09-11T07:48:24.579Z,11.44
2022-09-11T07:49:24.575Z,11.44
2022-09-11T07:50:24.607Z,11.11
2022-09-11T07:51:24.577Z,11.61
2022-09-11T07:52:24.579Z,11.72
2022-09-11T07:53:24.581Z,11.61
2022-09-11T07:54:24.583Z,11.61
2022-09-11T07:55:24.581Z,11.72
2022-09-11T07:56:24.588Z,11.44
2022-09-11T07:57:24.586Z,11.44
2022-09-11T07:58:24.584Z,11.83
2022-09-11T07:59:24.599Z,11.83
2022-09-11T08:00:24.591Z,11.72
2022-09-11T08:01:24.602Z,11.83
2022-09-11T08:02:24.615Z,11.83
2022-09-11T08:03:24.581Z,11.83
2022-09-11T08:04:24.590Z,11.83
2022-09-11T08:05:24.583Z,12.11
2022-09-11T08:06:24.615Z,12.11
2022-09-11T08:07:24.591Z,11.94
2022-09-11T08:08:24.592Z,11.94
2022-09-11T08:09:24.579Z,12.11
2022-09-11T08:10:27.484Z,12.28
2022-09-11T08:11:24.595Z,12.11
2022-09-11T08:12:24.598Z,11.83
2022-09-11T08:13:24.593Z,11.83
2022-09-11T08:14:24.593Z,11.83
2022-09-11T08:15:24.590Z,11.83
2022-09-11T08:16:24.635Z,11.83
2022-09-11T08:17:24.599Z,12.11
2022-09-11T08:18:24.595Z,11.83
2022-09-11T08:19:24.596Z,11.83
2022-09-11T08:20:24.607Z,12.11
2022-09-11T08:21:24.593Z,11.94
2022-09-11T08:22:24.625Z,12.11
2022-09-11T08:23:24.602Z,11.94
2022-09-11T08:24:24.595Z,12.11
2022-09-11T08:25:24.599Z,12.11
2022-09-11T08:26:24.603Z,11.83
2022-09-11T08:27:24.601Z,11.94
2022-09-11T08:28:24.603Z,12.28
2022-09-11T08:29:24.595Z,11.94
2022-09-11T08:30:24.603Z,12.11
2022-09-11T08:31:24.623Z,12.28
2022-09-11T08:32:24.596Z,12.28
2022-09-11T08:33:24.596Z,12.28
2022-09-11T08:34:24.600Z,12.44
2022-09-11T08:35:24.600Z,12.28
2022-09-11T08:36:24.600Z,12.28
2022-09-11T08:37:24.600Z,12.11
2022-09-11T08:38:24.625Z,12.11
2022-09-11T08:39:24.603Z,12.28
2022-09-11T08:40:24.602Z,12.28
2022-09-11T08:41:24.609Z,12.28
2022-09-11T08:42:24.605Z,12.28
2022-09-11T08:43:24.617Z,11.94
2022-09-11T08:44:24.596Z,12.11
2022-09-11T08:45:24.604Z,11.94
2022-09-11T08:46:24.611Z,11.83
2022-09-11T08:47:24.605Z,11.94
2022-09-11T08:48:24.609Z,11.94
2022-09-11T08:49:24.607Z,11.72
2022-09-11T08:50:24.609Z,11.72
2022-09-11T08:51:24.606Z,11.83
2022-09-11T08:52:24.608Z,11.83
2022-09-11T08:53:24.611Z,11.83
2022-09-11T08:54:24.633Z,11.83
2022-09-11T08:55:24.615Z,11.83
2022-09-11T08:56:24.615Z,11.83
2022-09-11T08:57:24.617Z,11.83
2022-09-11T08:58:24.611Z,11.83
2022-09-11T08:59:24.615Z,11.83
2022-09-11T09:00:24.613Z,11.83
2022-09-11T09:01:24.628Z,11.83
2022-09-11T09:02:24.641Z,11.72
2022-09-11T09:03:24.610Z,11.83
2022-09-11T09:04:24.619Z,11.72
2022-09-11T09:05:24.620Z,11.72
2022-09-11T09:06:24.613Z,11.72
2022-09-11T09:07:24.618Z,11.83
2022-09-11T09:08:24.623Z,11.72
2022-09-11T09:09:24.619Z,11.83
2022-09-11T09:10:24.649Z,11.72
2022-09-11T09:11:24.617Z,11.61
2022-09-11T09:12:24.620Z,11.28
2022-09-11T09:13:24.616Z,11.61
2022-09-11T09:14:24.621Z,11.28
2022-09-11T09:15:28.747Z,11.5
2022-09-11T09:16:24.627Z,11.61
2022-09-11T09:17:24.616Z,11.61
2022-09-11T09:18:24.612Z,11.72
2022-09-11T09:19:24.621Z,11.83
2022-09-11T09:20:24.617Z,11.72
2022-09-11T09:21:24.623Z,11.72
2022-09-11T09:22:24.615Z,11.72
2022-09-11T09:23:24.615Z,11.61
2022-09-11T09:24:24.619Z,11.72
2022-09-11T09:25:24.621Z,11.94
2022-09-11T09:26:24.638Z,12.28
2022-09-11T09:27:24.618Z,11.72
2022-09-11T09:28:24.619Z,11.83
2022-09-11T09:29:24.618Z,11.61
2022-09-11T09:30:24.619Z,11.83
2022-09-11T09:31:24.640Z,11.83
2022-09-11T09:32:24.622Z,11.83
2022-09-11T09:33:24.618Z,11.72
2022-09-11T09:34:24.613Z,11.44
2022-09-11T09:35:24.627Z,11.94
2022-09-11T09:36:24.623Z,11.83
2022-09-11T09:37:24.621Z,11.83
2022-09-11T09:38:27.063Z,11.83
2022-09-11T09:39:24.623Z,11.72
2022-09-11T09:40:24.626Z,12.11
2022-09-11T09:41:24.617Z,11.83
2022-09-11T09:42:24.646Z,11.61
2022-09-11T09:43:24.629Z,11.94
2022-09-11T09:44:24.620Z,12.11
2022-09-11T09:45:24.635Z,12.72
2022-09-11T09:46:24.628Z,12.28
2022-09-11T09:47:24.626Z,12.44
2022-09-11T09:48:24.624Z,12.44
2022-09-11T09:49:24.626Z,12.44
2022-09-11T09:50:24.618Z,12.44
2022-09-11T09:51:24.621Z,12.11
2022-09-11T09:52:24.629Z,12.56
2022-09-11T09:53:24.624Z,12.44
2022-09-11T09:54:24.629Z,12.78
2022-09-11T09:55:24.622Z,12.28
2022-09-11T09:56:24.621Z,12.72
2022-09-11T09:57:24.625Z,12.44
2022-09-11T09:58:24.655Z,12.44
2022-09-11T09:59:24.630Z,12.44
2022-09-11T10:00:24.627Z,12.44
2022-09-11T10:01:24.663Z,12.44
2022-09-11T10:02:24.667Z,12.72
2022-09-11T10:03:24.632Z,12.56
2022-09-11T10:04:24.630Z,12.56
2022-09-11T10:05:24.622Z,12.44
2022-09-11T10:06:24.630Z,12.72
2022-09-11T10:07:24.630Z,12.72
2022-09-11T10:08:24.619Z,12.56
2022-09-11T10:09:24.624Z,12.78
2022-09-11T10:10:24.627Z,12.89
2022-09-11T10:11:24.627Z,12.44
2022-09-11T10:12:24.646Z,12.72
2022-09-11T10:13:24.617Z,12.89
2022-09-11T10:14:49.638Z,12.89
2022-09-11T10:15:24.630Z,12.89
2022-09-11T10:16:24.624Z,13.11
2022-09-11T10:17:24.624Z,12.72
2022-09-11T10:18:24.625Z,12.67
2022-09-11T10:19:24.628Z,12.72
2022-09-11T10:20:24.624Z,12.44
2022-09-11T10:21:24.635Z,12.56
2022-09-11T10:22:24.626Z,12.56
2022-09-11T10:23:24.622Z,12.28
2022-09-11T10:24:24.625Z,12.28
2022-09-11T10:25:24.636Z,12.44
2022-09-11T10:26:24.635Z,12.28
2022-09-11T10:27:28.422Z,12.56
2022-09-11T10:28:24.638Z,12.56
2022-09-11T10:29:24.635Z,12.78
2022-09-11T10:30:24.673Z,12.72
2022-09-11T10:31:24.671Z,12.67
2022-09-11T10:32:24.644Z,12.72
2022-09-11T10:33:24.641Z,12.72
2022-09-11T10:34:24.640Z,12.56
2022-09-11T10:35:24.639Z,12.72
2022-09-11T10:36:24.642Z,12.72
2022-09-11T10:37:24.646Z,12.89
2022-09-11T10:38:24.640Z,13.06
2022-09-11T10:39:24.646Z,13.06
2022-09-11T10:40:24.645Z,13.17
2022-09-11T10:41:24.640Z,13.17
2022-09-11T10:42:24.648Z,13.06
2022-09-11T10:43:24.672Z,13.33
2022-09-11T10:44:24.639Z,13.5
2022-09-11T10:45:24.644Z,13.67
2022-09-11T10:46:24.697Z,13.33
2022-09-11T10:47:24.648Z,13.5
2022-09-11T10:48:24.651Z,13.67
2022-09-11T10:49:24.657Z,13.17
2022-09-11T10:50:24.657Z,13.5
2022-09-11T10:51:24.663Z,13.33
2022-09-11T10:52:24.656Z,13.17
2022-09-11T10:53:24.667Z,13.33
2022-09-11T10:54:24.666Z,13.06
2022-09-11T10:55:24.664Z,13.17
2022-09-11T10:56:24.665Z,13.28
2022-09-11T10:57:24.667Z,13.33
2022-09-11T10:58:24.672Z,13.67
2022-09-11T10:59:24.672Z,13.17
2022-09-11T11:00:24.666Z,13.78
2022-09-11T11:01:24.701Z,13.67
2022-09-11T11:02:24.766Z,13.67
2022-09-11T11:03:24.681Z,13.5
2022-09-11T11:04:24.673Z,13.17
2022-09-11T11:05:24.680Z,13.17
2022-09-11T11:06:24.675Z,13.06
2022-09-11T11:07:24.675Z,13.17
2022-09-11T11:08:24.677Z,13.39
2022-09-11T11:09:27.751Z,13.17
2022-09-11T11:10:24.673Z,13.06
2022-09-11T11:11:24.668Z,13.33
2022-09-11T11:12:24.677Z,13.17
2022-09-11T11:13:24.678Z,12.72
2022-09-11T11:14:24.688Z,13.28
2022-09-11T11:15:28.213Z,13.06
2022-09-11T11:16:24.675Z,13.11
2022-09-11T11:17:24.677Z,12.78
2022-09-11T11:18:24.707Z,12.89
2022-09-11T11:19:24.679Z,13
2022-09-11T11:20:24.686Z,13.28
2022-09-11T11:21:24.684Z,13.33
2022-09-11T11:22:24.686Z,12.61
2022-09-11T11:23:24.690Z,12.94
2022-09-11T11:24:24.685Z,12.78
2022-09-11T11:25:24.699Z,12.94
2022-09-11T11:26:24.696Z,12.61
2022-09-11T11:27:24.709Z,13.11
2022-09-11T11:28:24.692Z,13.22
2022-09-11T11:29:24.704Z,13.39
2022-09-11T11:30:24.699Z,13.22
2022-09-11T11:31:24.732Z,13.56
2022-09-11T11:32:24.705Z,13.39
2022-09-11T11:33:24.699Z,13.39
2022-09-11T11:34:24.729Z,13.56
2022-09-11T11:35:24.704Z,13.83
2022-09-11T11:36:24.708Z,13.44
2022-09-11T11:37:24.705Z,13.83
2022-09-11T11:38:24.706Z,13.67
2022-09-11T11:39:24.704Z,14.17
2022-09-11T11:40:24.703Z,13.78
2022-09-11T11:41:24.718Z,13.72
2022-09-11T11:42:24.711Z,14.06
2022-09-11T11:43:24.715Z,13.67
2022-09-11T11:44:24.703Z,14.11
2022-09-11T11:45:24.722Z,13.83
2022-09-11T11:46:24.708Z,13.83
2022-09-11T11:47:24.718Z,13.67
2022-09-11T11:48:24.720Z,14
2022-09-11T11:49:24.723Z,13.83
2022-09-11T11:50:26.457Z,14.11
2022-09-11T11:51:24.728Z,14
2022-09-11T11:52:24.719Z,13.61
2022-09-11T11:53:24.723Z,14
2022-09-11T11:54:24.728Z,13.83
2022-09-11T11:55:24.727Z,13.83
2022-09-11T11:56:24.734Z,13.83
2022-09-11T11:57:24.722Z,13.83
2022-09-11T11:58:24.724Z,13.83
2022-09-11T11:59:24.730Z,13.83
2022-09-11T12:00:24.732Z,13.67
2022-09-11T12:01:24.720Z,13.56
2022-09-11T12:02:24.736Z,13.22
2022-09-11T12:03:24.759Z,13.39
2022-09-11T12:04:24.731Z,13.22
2022-09-11T12:05:24.739Z,13.11
2022-09-11T12:06:24.759Z,12.94
2022-09-11T12:07:24.747Z,13.11
2022-09-11T12:08:24.743Z,12.94
2022-09-11T12:09:24.739Z,13.39
2022-09-11T12:10:24.737Z,13.39
2022-09-11T12:11:24.738Z,13.39
2022-09-11T12:12:24.741Z,13.39
2022-09-11T12:13:24.743Z,13.11
2022-09-11T12:14:24.740Z,13.39
2022-09-11T12:15:24.749Z,13.39
2022-09-11T12:16:24.802Z,13.56
2022-09-11T12:17:24.752Z,13.39
2022-09-11T12:18:24.749Z,13.39
2022-09-11T12:19:24.754Z,13.39
2022-09-11T12:20:24.753Z,12.94
2022-09-11T12:21:24.756Z,12.94
2022-09-11T12:22:24.779Z,12.94
2022-09-11T12:23:24.759Z,13.11
2022-09-11T12:24:24.755Z,12.94
2022-09-11T12:25:24.761Z,12.78
2022-09-11T12:26:24.763Z,13.39
2022-09-11T12:27:24.752Z,13.39
2022-09-11T12:28:24.759Z,13.39
2022-09-11T12:29:24.764Z,13.39
2022-09-11T12:30:24.765Z,13.39
2022-09-11T12:31:24.807Z,13.56
2022-09-11T12:32:24.773Z,13.67
2022-09-11T12:33:24.773Z,13.39
2022-09-11T12:34:24.769Z,12.94
2022-09-11T12:35:24.758Z,13.22
2022-09-11T12:36:24.771Z,12.78
2022-09-11T12:37:24.793Z,12.78
2022-09-11T12:38:24.800Z,13.39
2022-09-11T12:39:24.768Z,13.83
2022-09-11T12:40:24.780Z,13.83
2022-09-11T12:41:24.782Z,13.67
2022-09-11T12:42:24.781Z,13.83
2022-09-11T12:43:24.782Z,13.83
2022-09-11T12:44:24.785Z,13.56
2022-09-11T12:45:24.810Z,13.11
2022-09-11T12:46:24.775Z,13.11
2022-09-11T12:47:24.782Z,13.39
2022-09-11T12:48:24.786Z,13.39
2022-09-11T12:49:24.784Z,13.83
2022-09-11T12:50:24.786Z,13.83
2022-09-11T12:51:24.788Z,14
2022-09-11T12:52:24.781Z,14.11
2022-09-11T12:53:24.787Z,14.11
2022-09-11T12:54:24.813Z,14
2022-09-11T12:55:24.785Z,13.83
2022-09-11T12:56:24.785Z,14.11
2022-09-11T12:57:24.787Z,14
2022-09-11T12:58:24.786Z,14
2022-09-11T12:59:24.794Z,14